Thursday, August 16, 2018, 4:02 AM GMT
Back to Local

CWIT, Saint Clothilde Automated Reporting Station

Location: , , Canada Lat: 45.167
Local Time: 4:02 AM GMT ( 4:02 GMT) Lon: -73.683
Time Zone: GMT Elev: 170 ft

Show me the last for .
Show Coded

Time T Td Feel RH Dir Speed Gust Alt SLP Vis Weather Sky Remarks
2018-08-16 03:00 72 64 76 76 280° 2 - - 29.92 0 None
2018-08-16 02:00 71 64 76 80 300° 5 - - 29.90 0 None
2018-08-16 01:00 73 64 77 73 290° 3 - - 29.90 0 None
2018-08-16 00:00 75 64 78 67 280° 5 - - 29.87 0 None
2018-08-15 23:00 74 69 78 82 280° 5 - - 29.85 0 None
2018-08-15 22:00 76 68 80 75 270° 5 - - 29.84 0 None
2018-08-15 21:00 77 69 80 75 290° 5 - - 29.84 0 None
2018-08-15 20:00 79 66 82 64 280° 7 - - 29.84 0 None
2018-08-15 19:00 80 66 82 64 300° 6 - - 29.84 0 None
2018-08-15 18:00 78 67 81 68 270° 7 - - 29.85 0 None
2018-08-15 17:00 72 70 77 92 270° 5 - - 29.85 0 None
2018-08-15 16:00 73 67 77 81 310° 8 - - 29.86 0 None
2018-08-15 15:00 78 69 81 74 280° 5 - - 29.82 0 None
2018-08-15 14:00 78 70 82 75 280° 8 - - 29.82 0 None
2018-08-15 13:00 76 69 79 79 270° 6 - - 29.80 0 None
2018-08-15 12:00 73 68 77 84 260° 7 - - 29.80 0 None
2018-08-15 11:00 71 68 76 91 290° 3 - - 29.79 0 None
2018-08-15 10:00 70 68 - 92 270° 5 - - 29.77 0 None
2018-08-15 09:00 71 68 76 90 250° 3 - - 29.77 0 None
2018-08-15 08:00 71 68 76 92 260° 5 - - 29.77 0 None
2018-08-15 07:00 71 69 76 95 300° 3 - - 29.77 0 None
2018-08-15 06:00 69 67 - 95 290° 1 - - 29.77 0 None
2018-08-15 05:00 70 67 - 92 - Calm - - 29.77 0 None

Support USWX by starting your Amazon purchase here.